Columbus, OH (43271)

7:59 PM EDT on July 23, 2016 (GMT -0400)
Victorian Village | | Change Station
Active Advisory: Heat Advisory Active Notice: Public Information Statement

Elev 748 ft 39.98 °N, 83.01 °W | Updated 11 seconds ago

Mostly Cloudy
Mostly Cloudy
87.4 °F
Feels Like 93 °F
N
0.0
Wind Variable Wind from SE
Gusts 0.0 mph

Today
High -- | Low -- °F
--% Chance of Precip.
Yesterday
High -- | Low -- °F
Precip. -- in
Pressure 29.93 in
Visibility 10.0 miles
Clouds Few 4900 ft
Mostly Cloudy 25000 ft
Heat Index 93 °F
Dew Point 71 °F
Humidity 59%
Rainfall 0.00 in
Snow Depth Not available.
6:22 AM 8:53 PM
Waning Gibbous, 81% visible
METAR KCMH 232351Z 28005KT 10SM FEW049 BKN250 31/21 A2995 RMK AO2 SLP135 T03110206 10322 20306 55006
Pressure 29.93 in
Visibility 10.0 miles
Clouds Few 4900 ft
Mostly Cloudy 25000 ft
Heat Index 93 °F
Dew Point 71 °F
Humidity 59%
Rainfall 0.00 in
Snow Depth Not available.
6:22 AM 8:53 PM
Waning Gibbous, 81% visible
METAR KCMH 232351Z 28005KT 10SM FEW049 BKN250 31/21 A2995 RMK AO2 SLP135 T03110206 10322 20306 55006

10-Day Weather Forecast

Almanac

Astronomy

Jul. 23, 2016 Rise Set
Actual Time
Civil Twilight
Nautical Twilight
Astronomical Twilight
Moon
Length of Visible Light
Length of Day
Tomorrow will be .
, % of the Moon is Illuminated

Today's Extremes

State Highs State Lows

Community

WunderPhotos

Upload Photos

1,926,975 photos uploaded!

WunderBlog® & News

Nearby

Air Quality

  Air Quality AQ Index Pollutant
Not available.

Snow Depth

Station Depth Elevation

Earthquake Activity

City Distance Mag. Time & Date
Minimum magnitude displayed is 2.5.

Coastal Water Temperatures

Place Temperature

Stations

Nearby Weather Stations

Station Location Temp. Windchill Dew Point Humidity Wind Precip. Elev Updated Type
                   

Watches & Warnings

Heat Advisory
Issued: 7:58 PM EDT Jul. 23, 2016 – National Weather Service

... Heat advisory remains in effect until 8 PM EDT Sunday...

* heat index values... from 100 to 104 due to temperatures in the
lower 90s... and dewpoints in the lower to middle 70s.

* Timing... highest temperatures and heat indices will occur
during the afternoon hours.

* Impacts... heat stroke... heat exhaustion and other heat related
illnesses will be possible... especially if you spend a
significant amount of time outdoors... or are involved in any
strenuous outdoor activity.

Precautionary/preparedness actions...

Reduce outdoor activities... especially from mid-morning through
the afternoon. Wear light weight and loose fitting clothing and
drink plenty of water. If possible... spend more time in air
conditioned or well ventilated places.

To reduce risk during outdoor work the occupational safety and
health administration recommends scheduling frequent rest breaks
in shaded or air conditioned environments. Anyone overcome by
heat should be moved to a cool and shaded location. Heat stroke
is an emergency... call 911.